Data for 05/29/2006

Time Sea-Level Adjusted Pressure Absolute Pressure Temperature Relative Humidity Dew Point   
(mb) (inHg) (mb) (inHg) (C) (F) (%) (C) (F)
00:05 1016 30 845 24.95 6 42.8 86 3.8 38.9
00:10 1016 30 845 24.95 6 42.8 88 4.1 39.4
00:15 1016 30 845 24.95 5.8 42.4 89 4 39.3
00:20 1016 30 845 24.95 5.5 41.8 90 3.9 39
00:25 1016 30 845 24.95 5.1 41.3 91 3.8 38.9
00:30 1016 30 845 24.95 5 41 92 3.8 38.8
00:35 1016 30 845 24.95 5 41 93 3.9 39
00:40 1016 30 845 24.95 4.9 40.8 93 3.9 39
00:45 1016 30 845 24.95 5 41 93 3.9 39
00:50 1016 30 845 24.95 5.1 41.2 92 3.9 39
00:55 1016 30 845 24.95 5.2 41.4 91 3.8 38.9
01:00 1016 30 845 24.95 5.1 41.2 90 3.6 38.5
01:05 1016 30 845 24.95 5 41 91 3.6 38.5
01:10 1016 30 845 24.95 5.1 41.2 91 3.7 38.7
01:15 1016 30 845 24.95 5.1 41.2 91 3.8 38.8
01:20 1016 30 845 24.95 5 41.1 91 3.7 38.7
01:25 1016 30 845 24.95 5.1 41.2 90 3.7 38.6
01:30 1016 30 845 24.95 5.1 41.3 91 3.8 38.8
01:35 1016 30 845 24.95 5 41.1 92 3.8 38.8
01:40 1016 30 845 24.95 5 40.9 93 3.9 39
01:45 1016 30 845 24.95 4.9 40.8 93 3.8 38.9
01:50 1016 30 845 24.95 4.9 40.8 93 3.9 39
01:55 1016 30 845 24.95 5 41 93 4 39.2
02:00 1016 30 845 24.95 5 41 93 4 39.1
02:05 1016 30 845 24.95 5.2 41.3 91 3.8 38.9
02:10 1016 30 845 24.95 5.3 41.5 91 3.9 39.1
02:15 1016 30 845 24.95 5.3 41.5 91 3.9 39.1
02:20 1016 30 845 24.95 5.4 41.6 91 4 39.3
02:25 1016 30 845 24.95 5.3 41.6 91 4 39.2
02:30 1016 30 845 24.95 5.2 41.4 93 4.1 39.4
02:35 1016 30 845 24.95 5 40.9 93 4 39.1
02:40 1016 30 845 24.95 5 41 94 4.1 39.3
02:45 1016 30 845 24.95 5.2 41.3 92 4 39.2
02:50 1016 30 845 24.95 5.3 41.6 89 3.7 38.6
02:55 1016 30 845 24.95 5.5 42 86 3.3 38
03:00 1016 30 845 24.95 5.6 42.2 85 3.3 37.9
03:05 1016 30 845 24.95 5.7 42.2 82 2.9 37.2
03:10 1016 30 845 24.95 5.7 42.2 82 2.9 37.2
03:15 1016 30 846 24.98 5.6 42.1 83 2.9 37.2
03:20 1016 30 846 24.98 5.7 42.2 83 3 37.4
03:25 1016 30 846 24.98 5.6 42.1 83 2.9 37.2
03:30 1017 30.03 846 24.98 5.6 42 84 3 37.5
03:35 1017 30.03 846 24.98 5.5 42 85 3.1 37.7
03:40 1017 30.03 846 24.98 5.4 41.8 83 2.8 37
03:45 1017 30.03 846 24.98 5.5 41.9 85 3.2 37.7
03:50 1017 30.03 846 24.98 5.5 41.8 83 2.9 37.2
03:55 1017 30.03 846 24.98 5.5 41.9 84 3 37.3
04:00 1017 30.03 846 24.98 5.5 41.9 82 2.6 36.8
04:05 1017 30.03 846 24.98 5.6 42.1 83 2.9 37.3
04:10 1017 30.03 846 24.98 5.6 42.1 80 2.5 36.4
04:15 1017 30.03 846 24.98 5.7 42.2 79 2.3 36.1
04:20 1017 30.03 846 24.98 5.7 42.3 78 2.2 36
04:25 1017 30.03 846 24.98 5.8 42.5 78 2.3 36.1
04:30 1017 30.03 846 24.98 5.9 42.6 76 2 35.5
04:35 1017 30.03 846 24.98 6 42.7 74 1.7 35.1
04:40 1017 30.03 846 24.98 6 42.8 74 1.8 35.3
04:45 1017 30.03 846 24.98 6.1 43.1 72 1.5 34.7
04:50 1017 30.03 846 24.98 6.2 43.1 73 1.8 35.2
04:55 1017 30.03 846 24.98 6.1 43 74 1.9 35.3
05:00 1017 30.03 846 24.98 6.1 43 75 1.9 35.5
05:05 1017 30.03 846 24.98 6 42.9 76 2.1 35.9
05:10 1017 30.03 846 24.98 6 42.8 76 2 35.6
05:15 1017 30.03 846 24.98 6 42.8 75 2 35.5
05:20 1017 30.03 846 24.98 6 42.9 76 2.1 35.8
05:25 1017 30.03 846 24.98 6 42.7 75 2 35.5
05:30 1017 30.03 847 25.01 5.9 42.7 76 2.1 35.8
05:35 1018 30.06 847 25.01 5.9 42.7 77 2.3 36.1
05:40 1018 30.06 847 25.01 5.9 42.6 78 2.3 36.1
05:45 1018 30.06 847 25.01 5.9 42.6 78 2.3 36.2
05:50 1018 30.06 847 25.01 6 42.8 77 2.3 36.1
05:55 1018 30.06 847 25.01 5.9 42.7 78 2.5 36.4
06:00 1018 30.06 847 25.01 5.9 42.6 78 2.3 36.1
06:05 1018 30.06 847 25.01 5.9 42.6 78 2.4 36.4
06:10 1018 30.06 847 25.01 6 42.8 77 2.3 36.2
06:15 1018 30.06 847 25.01 6 42.8 78 2.5 36.4
06:20 1018 30.06 847 25.01 6 42.8 79 2.6 36.7
06:25 1018 30.06 847 25.01 5.9 42.7 79 2.6 36.7
06:30 1018 30.06 847 25.01 6 42.7 79 2.5 36.6
06:35 1018 30.06 847 25.01 5.9 42.7 80 2.7 36.9
06:40 1018 30.06 847 25.01 5.9 42.7 80 2.8 37
06:45 1018 30.06 847 25.01 5.5 41.9 82 2.6 36.7
06:50 1018 30.06 847 25.01 5.5 41.9 80 2.4 36.3
06:55 1018 30.06 847 25.01 5.6 42 78 2 35.6
07:00 1018 30.06 847 25.01 5.8 42.4 79 2.5 36.4
07:05 1018 30.06 847 25.01 5.7 42.3 81 2.7 36.9
07:10 1018 30.06 847 25.01 5.6 42 83 2.9 37.1
07:15 1018 30.06 847 25.01 5.6 42.1 82 2.8 37
07:20 1018 30.06 847 25.01 5.6 42.1 80 2.5 36.5
07:25 1018 30.06 847 25.01 5.6 42.1 81 2.6 36.8
07:30 1018 30.06 848 25.04 5.8 42.4 79 2.4 36.4
07:35 1018 30.06 848 25.04 6 42.8 79 2.7 36.8
07:40 1018 30.06 848 25.04 5.9 42.7 81 2.9 37.2
07:45 1018 30.06 847 25.01 6 42.8 81 2.9 37.3
07:50 1018 30.06 848 25.04 6.2 43.2 77 2.6 36.6
07:55 1018 30.06 848 25.04 6.3 43.3 77 2.5 36.5
08:00 1018 30.06 848 25.04 6.4 43.6 74 2.2 36
08:05 1018 30.06 848 25.04 6.6 43.9 67 0.9 33.6
08:10 1018 30.06 848 25.04 6.9 44.5 64 0.6 33
08:15 1019 30.09 848 25.04 7.2 44.9 65 1.1 34.1
08:20 1019 30.09 848 25.04 7.2 44.9 67 1.5 34.7
08:25 1019 30.09 848 25.04 7.5 45.6 65 1.5 34.6
08:30 1019 30.09 848 25.04 7.7 45.9 59 0.2 32.3
08:35 1019 30.09 848 25.04 7.8 46.1 61 0.8 33.4
08:40 1019 30.09 848 25.04 8.1 46.6 60 0.9 33.6
08:45 1019 30.09 848 25.04 8.2 46.8 59 0.6 33.1
08:50 1019 30.09 848 25.04 8.3 46.9 56 0 32
08:55 1019 30.09 848 25.04 8.4 47.2 58 0.6 33
09:00 1019 30.09 848 25.04 8.6 47.4 56 0.2 32.4
09:05 1019 30.09 848 25.04 8.4 47.1 57 0.5 32.9
09:10 1019 30.09 848 25.04 8.3 46.9 55 -0.3 31.4
09:15 1019 30.09 848 25.04 8.3 46.9 56 0.1 32.2
09:20 1019 30.09 848 25.04 8.4 47.2 53 -0.5 31
09:25 1019 30.09 848 25.04 8.7 47.6 51 -1 30.2
09:30 1019 30.09 848 25.04 9 48.1 51 -0.6 30.9
09:35 1019 30.09 848 25.04 9.1 48.4 51 -0.4 31.2
09:40 1019 30.09 848 25.04 9.2 48.5 51 -0.4 31.3
09:45 1019 30.09 848 25.04 9.5 49.1 49 -0.6 30.9
09:50 1019 30.09 848 25.04 9.5 49 50 -0.3 31.5
09:55 1019 30.09 848 25.04 9.3 48.8 50 -0.6 30.9
10:00 1019 30.09 848 25.04 9.4 48.8 48 -1 30.3
10:05 1019 30.09 848 25.04 9.4 48.9 50 -0.5 31.1
10:10 1019 30.09 848 25.04 9.6 49.2 50 -0.4 31.3
10:15 1019 30.09 848 25.04 10 50 49 -0.1 31.8
10:20 1019 30.09 848 25.04 10.1 50.1 47 -0.6 30.9
10:25 1019 30.09 848 25.04 10.2 50.3 48 -0.4 31.2
10:30 1019 30.09 848 25.04 10.3 50.6 46 -0.6 30.8
10:35 1019 30.09 848 25.04 10.5 50.8 45 -1 30.3
10:40 1019 30.09 848 25.04 10.5 51 45 -1 30.2
10:45 1019 30.09 848 25.04 10.6 51 45 -0.9 30.4
10:50 1019 30.09 848 25.04 10.6 51 43 -1.4 29.5
10:55 1019 30.09 848 25.04 10.5 51 48 -0.1 31.9
11:00 1019 30.09 848 25.04 10.6 51 45 -0.8 30.6
11:05 1019 30.09 848 25.04 10.9 51.7 46 -0.3 31.5
11:10 1019 30.09 848 25.04 11 51.8 43 -1 30.1
11:15 1019 30.09 848 25.04 10.7 51.3 47 -0 31.9
11:20 1019 30.09 848 25.04 10.7 51.3 46 -0.4 31.4
11:25 1019 30.09 848 25.04 11 51.9 44 -0.8 30.6
11:30 1019 30.09 848 25.04 11.6 52.9 42 -0.9 30.4
11:35 1019 30.09 848 25.04 11.2 52.2 44 -0.5 31
11:40 1019 30.09 848 25.04 11.4 52.6 43 -0.6 30.9
11:45 1019 30.09 848 25.04 11.8 53.3 41 -1 30.2
11:50 1019 30.09 848 25.04 12.4 54.3 41 -0.3 31.5
11:55 1019 30.09 848 25.04 12.8 55.1 40 -0.4 31.2
12:00 1019 30.09 848 25.04 12.2 54 40 -1 30.1
12:05 1019 30.09 848 25.04 12.3 54.1 38 -1.4 29.4
12:10 1019 30.09 848 25.04 12.8 55 39 -0.8 30.5
12:15 1019 30.09 848 25.04 12.6 54.6 40 -0.5 31.2
12:20 1019 30.09 848 25.04 12.4 54.2 41 -0.3 31.4
12:25 1019 30.09 848 25.04 11.9 53.5 42 -0.5 31.1
12:30 1019 30.09 848 25.04 12.8 55 40 -0.5 31.2
12:35 1019 30.09 848 25.04 12.7 54.9 41 -0 32
12:40 1019 30.09 848 25.04 12.5 54.6 40 -0.5 31.1
12:45 1019 30.09 848 25.04 12.5 54.4 41 -0.2 31.6
12:50 1019 30.09 848 25.04 12.3 54.1 43 0.1 32.1
12:55 1019 30.09 848 25.04 12.2 54 41 -0.4 31.2
13:00 1019 30.09 848 25.04 12.5 54.5 39 -1.1 30.1
13:05 1019 30.09 848 25.04 12.8 55.1 37 -1.4 29.4
13:10 1019 30.09 848 25.04 13.1 55.6 39 -0.4 31.4
13:15 1019 30.09 848 25.04 13.3 55.9 39 -0.4 31.2
13:20 1019 30.09 848 25.04 13 55.3 40 -0.1 31.7
13:25 1019 30.09 848 25.04 13.1 55.5 39 -0.5 31.2
13:30 1019 30.09 848 25.04 12.9 55.2 41 -0 31.9
13:35 1019 30.09 848 25.04 13.6 56.5 35 -1.5 29.4
13:40 1019 30.09 848 25.04 13.9 57 36 -0.9 30.5
13:45 1019 30.09 848 25.04 14.6 58.3 34 -1.1 30.1
13:50 1019 30.09 848 25.04 15.1 59.1 32 -1.2 29.8
13:55 1019 30.09 848 25.04 14.6 58.2 33 -1.3 29.7
14:00 1019 30.09 848 25.04 14.5 58.1 32 -1.9 28.6
14:05 1019 30.09 848 25.04 14.7 58.5 31 -2.1 28.3
14:10 1019 30.09 848 25.04 15 59 32 -1.5 29.2
14:15 1019 30.09 848 25.04 14.5 58 34 -1.3 29.7
14:20 1019 30.09 848 25.04 14.9 58.8 31 -1.9 28.6
14:25 1019 30.09 848 25.04 14.8 58.7 32 -1.5 29.3
14:30 1018 30.06 848 25.04 15.1 59.1 32 -1.3 29.6
14:35 1019 30.09 848 25.04 15 59 32 -1.4 29.4
14:40 1019 30.09 848 25.04 15.1 59.1 30 -2.2 28
14:45 1019 30.09 848 25.04 14.7 58.5 30 -2.4 27.7
14:50 1019 30.09 848 25.04 14.5 58.1 30 -2.7 27.1
14:55 1019 30.09 848 25.04 14.5 58 31 -2.3 27.8
15:00 1019 30.09 848 25.04 14.9 58.8 30 -2.4 27.6
15:05 1019 30.09 848 25.04 14.5 58 31 -2.4 27.6
15:10 1019 30.09 848 25.04 14.4 57.9 31 -2.7 27.2
15:15 1019 30.09 848 25.04 14.9 58.8 32 -1.5 29.2
15:20 1019 30.09 848 25.04 14.1 57.3 35 -1.2 29.8
15:25 1019 30.09 848 25.04 13.3 56 38 -0.6 30.8
15:30 1019 30.09 848 25.04 12.6 54.7 41 -0.3 31.4
15:35 1019 30.09 848 25.04 12.3 54.2 42 -0.3 31.5
15:40 1019 30.09 848 25.04 12.6 54.6 41 -0.1 31.8
15:45 1019 30.09 848 25.04 12.5 54.5 41 -0.4 31.3
15:50 1019 30.09 848 25.04 12 53.6 46 0.8 33.5
15:55 1019 30.09 848 25.04 12.2 54 40 -0.9 30.4
16:00 1019 30.09 848 25.04 12.4 54.2 41 -0.6 31
16:05 1019 30.09 848 25.04 12.4 54.3 44 0.5 33
16:10 1019 30.09 848 25.04 12.8 55.1 38 -1 30.3
16:15 1019 30.09 848 25.04 13 55.4 40 -0.4 31.3
16:20 1019 30.09 848 25.04 13.2 55.8 38 -0.8 30.6
16:25 1019 30.09 848 25.04 13.3 55.9 37 -1.1 29.9
16:30 1019 30.09 848 25.04 13.6 56.4 37 -0.9 30.4
16:35 1019 30.09 848 25.04 13.9 57 34 -1.8 28.8
16:40 1019 30.09 848 25.04 13.5 56.3 36 -1.3 29.6
16:45 1019 30.09 848 25.04 13.9 57 35 -1.3 29.6
16:50 1019 30.09 848 25.04 13.3 55.9 36 -1.3 29.7
16:55 1019 30.09 848 25.04 13.5 56.2 35 -1.8 28.8
17:00 1019 30.09 848 25.04 13.5 56.3 34 -2.1 28.2
17:05 1019 30.09 848 25.04 13.4 56 36 -1.4 29.5
17:10 1019 30.09 848 25.04 13.5 56.3 35 -1.5 29.2
17:15 1019 30.09 848 25.04 13.7 56.6 35 -1.5 29.3
17:20 1019 30.09 848 25.04 13.6 56.5 34 -2.1 28.3
17:25 1019 30.09 848 25.04 13.8 56.8 35 -1.5 29.4
17:30 1019 30.09 848 25.04 14.2 57.5 32 -2.1 28.2
17:35 1019 30.09 848 25.04 15.1 59.2 27 -3.5 25.6
17:40 1019 30.09 848 25.04 15.4 59.7 27 -3.5 25.7
17:45 1019 30.09 848 25.04 15.3 59.6 27 -3.4 26
17:50 1019 30.09 848 25.04 15.2 59.3 30 -2.4 27.6
17:55 1019 30.09 848 25.04 14.7 58.5 23 -6.1 20.9
18:00 1019 30.09 848 25.04 14.2 57.6 25 -5.4 22.3
18:05 1019 30.09 848 25.04 14.6 58.4 29 -3.3 26.1
18:10 1019 30.09 848 25.04 14.7 58.4 29 -3 26.5
18:15 1019 30.09 848 25.04 14.9 58.8 30 -2.4 27.6
18:20 1019 30.09 848 25.04 14.8 58.7 29 -3 26.6
18:25 1019 30.09 848 25.04 14.5 58 30 -2.9 26.7
18:30 1019 30.09 848 25.04 14.5 58 31 -2.2 28
18:35 1019 30.09 848 25.04 14.4 58 32 -1.8 28.7
18:40 1019 30.09 848 25.04 14 57.1 38 0.1 32.1
18:45 1019 30.09 848 25.04 13.2 55.7 36 -1.7 29
18:50 1019 30.09 848 25.04 12.9 55.3 39 -0.7 30.8
18:55 1019 30.09 848 25.04 12.6 54.7 41 -0.1 31.8
19:00 1019 30.09 848 25.04 12.5 54.6 43 0.5 32.9
19:05 1019 30.09 848 25.04 12.2 54 45 0.6 33
19:10 1019 30.09 849 25.07 12.1 53.7 46 0.9 33.7
19:15 1019 30.09 849 25.07 12 53.6 50 1.8 35.3
19:20 1020 30.12 849 25.07 12.1 53.7 48 1.4 34.5
19:25 1020 30.12 849 25.07 12 53.6 46 0.7 33.2
19:30 1020 30.12 849 25.07 12 53.5 46 0.9 33.6
19:35 1020 30.12 849 25.07 11.8 53.2 46 0.7 33.2
19:40 1020 30.12 849 25.07 11.6 52.8 47 0.6 33.2
19:45 1020 30.12 849 25.07 11.3 52.4 47 0.6 33
19:50 1020 30.12 850 25.1 11.4 52.4 47 0.4 32.8
19:55 1020 30.12 850 25.1 11.5 52.7 47 0.6 33
20:00 1021 30.15 850 25.1 11.5 52.6 47 0.6 33.2
20:05 1021 30.15 850 25.1 11.7 53.1 46 0.4 32.7
20:10 1020 30.12 850 25.1 11.4 52.6 44 -0.3 31.5
20:15 1020 30.12 850 25.1 11.2 52.1 44 -0.5 31.1
20:20 1020 30.12 850 25.1 11.2 52.1 46 0.1 32.2
20:25 1020 30.12 850 25.1 11.1 51.9 47 0.3 32.5
20:30 1020 30.12 850 25.1 11 51.9 45 -0.4 31.3
20:35 1020 30.12 850 25.1 10.9 51.7 46 -0.3 31.5
20:40 1020 30.12 850 25.1 10.7 51.3 47 -0.1 31.8
20:45 1020 30.12 850 25.1 10.5 50.9 47 -0.1 31.8
20:50 1021 30.15 850 25.1 10.4 50.6 46 -0.6 31
20:55 1021 30.15 850 25.1 10.4 50.6 48 -0.3 31.5
21:00 1021 30.15 850 25.1 10.4 50.7 48 -0.1 31.9
21:05 1021 30.15 850 25.1 10.4 50.7 49 0.2 32.4
21:10 1021 30.15 850 25.1 10.2 50.3 51 0.7 33.2
21:15 1021 30.15 850 25.1 9.9 49.7 53 0.7 33.2
21:20 1021 30.15 850 25.1 9.6 49.4 52 0.4 32.8
21:25 1021 30.15 851 25.13 9.6 49.3 52 0.4 32.7
21:30 1022 30.18 851 25.13 9.7 49.4 52 0.4 32.7
21:35 1022 30.18 851 25.13 9.6 49.2 54 0.7 33.3
21:40 1022 30.18 851 25.13 9.5 49 54 0.8 33.4
21:45 1022 30.18 851 25.13 9.3 48.7 55 0.6 33.1
21:50 1022 30.18 851 25.13 9.1 48.4 54 0.3 32.5
21:55 1022 30.18 851 25.13 9.3 48.7 51 -0.3 31.5
22:00 1022 30.18 851 25.13 9.2 48.5 56 1 33.8
22:05 1022 30.18 851 25.13 8.8 47.8 54 0.1 32.3
22:10 1022 30.18 851 25.13 9.3 48.7 51 -0.3 31.5
22:15 1022 30.18 851 25.13 9.5 49.2 51 -0.2 31.7
22:20 1022 30.18 851 25.13 9.5 49.1 51 -0.1 31.8
22:25 1022 30.18 851 25.13 9.5 49 51 -0.1 31.8
22:30 1022 30.18 851 25.13 9.5 49.1 51 -0 32
22:35 1022 30.18 852 25.16 9.6 49.2 52 0.1 32.2
22:40 1022 30.18 852 25.16 9.6 49.2 53 0.5 32.9
22:45 1022 30.18 852 25.16 9.5 49.2 52 0.2 32.4
22:50 1022 30.18 852 25.16 9.5 49.1 52 0.1 32.2
22:55 1022 30.18 852 25.16 9.4 48.8 51 -0.2 31.6
23:00 1022 30.18 852 25.16 9.1 48.3 53 0.1 32.2
23:05 1022 30.18 852 25.16 8.7 47.7 55 0.1 32.3
23:10 1022 30.18 851 25.13 8.5 47.4 55 -0.1 31.9
23:15 1022 30.18 851 25.13 8.5 47.3 55 -0.1 31.9
23:20 1022 30.18 851 25.13 8.5 47.2 55 0 32.1
23:25 1022 30.18 851 25.13 8.3 46.9 58 0.5 33
23:30 1022 30.18 851 25.13 8.4 47 56 0.1 32.3
23:35 1022 30.18 851 25.13 8.4 47 57 0.3 32.5
23:40 1022 30.18 851 25.13 8.6 47.4 56 0.3 32.6
23:45 1022 30.18 851 25.13 8.5 47.2 57 0.4 32.7
23:50 1022 30.18 851 25.13 8.6 47.4 57 0.6 33.2
23:55 1022 30.18 851 25.13 8.6 47.5 58 0.9 33.7
24:00 1022 30.18 851 25.13 8.5 47.3 59 1 33.8